createdAt,value
2019-04-20T00:01:40.903Z,60.11
2019-04-20T00:04:20.523Z,56.54
2019-04-20T00:06:49.590Z,62.03
2019-04-20T00:09:24.085Z,63.83
2019-04-20T00:12:01.504Z,57.68
2019-04-20T00:14:29.582Z,55.43
2019-04-20T00:16:58.792Z,55.41
2019-04-20T00:19:37.103Z,59.37
2019-04-20T00:22:08.680Z,54.39
2019-04-20T00:24:41.123Z,54.62
2019-04-20T00:27:40.497Z,53.47
2019-04-20T00:29:58.802Z,54.30
2019-04-20T00:32:35.983Z,52.27
2019-04-20T00:34:52.767Z,56.56
2019-04-20T00:37:25.388Z,59.67
2019-04-20T00:39:57.917Z,52.50
2019-04-20T00:42:36.906Z,53.25
2019-04-20T00:45:10.337Z,53.13
2019-04-20T00:47:46.994Z,52.43
2019-04-20T00:50:24.661Z,53.38
2019-04-20T00:52:56.961Z,62.17
2019-04-20T00:55:14.928Z,59.02
2019-04-20T00:57:53.039Z,55.54
2019-04-20T01:00:37.116Z,56.14
2019-04-20T01:03:10.156Z,63.88
2019-04-20T01:06:07.937Z,66.92
2019-04-20T01:08:21.253Z,66.44
2019-04-20T01:10:57.387Z,68.04
2019-04-20T01:13:27.152Z,68.20
2019-04-20T01:16:06.215Z,69.09
2019-04-20T01:18:32.187Z,69.45
2019-04-20T01:21:06.833Z,70.03
2019-04-20T01:23:43.809Z,70.11
2019-04-20T01:26:15.567Z,69.85
2019-04-20T01:28:54.210Z,70.48
2019-04-20T01:31:27.131Z,70.62
2019-04-20T01:33:58.481Z,70.51
2019-04-20T01:36:42.965Z,70.81
2019-04-20T01:39:07.567Z,71.28
2019-04-20T01:41:28.853Z,71.28
2019-04-20T01:44:00.561Z,71.39
2019-04-20T01:46:33.283Z,71.58
2019-04-20T01:49:11.491Z,72.00
2019-04-20T01:51:46.990Z,72.32
2019-04-20T01:54:27.588Z,71.75
2019-04-20T01:57:00.922Z,72.14
2019-04-20T01:59:40.076Z,72.15
2019-04-20T02:02:14.077Z,72.40
2019-04-20T02:04:45.959Z,72.48
2019-04-20T02:07:18.469Z,72.50
2019-04-20T02:09:56.308Z,72.30
2019-04-20T02:12:26.085Z,72.32
2019-04-20T02:14:59.449Z,70.59
2019-04-20T02:17:37.374Z,71.12
2019-04-20T02:20:22.789Z,71.64
2019-04-20T02:22:51.578Z,71.96
2019-04-20T02:25:09.950Z,72.08
2019-04-20T02:27:49.754Z,71.51
2019-04-20T02:30:47.550Z,71.45
2019-04-20T02:33:34.733Z,71.72
2019-04-20T02:36:15.485Z,71.72
2019-04-20T02:41:36.192Z,72.57
2019-04-20T02:44:21.796Z,72.69
2019-04-20T02:46:42.738Z,73.12
2019-04-20T02:49:19.846Z,72.40
2019-04-20T02:51:46.726Z,72.35
2019-04-20T02:54:21.957Z,72.08
2019-04-20T02:57:07.534Z,72.35
2019-04-20T02:59:48.710Z,72.20
2019-04-20T03:01:45.627Z,71.92
2019-04-20T03:04:02.078Z,71.37
2019-04-20T03:06:48.363Z,70.76
2019-04-20T03:09:29.857Z,72.21
2019-04-20T03:12:03.377Z,71.53
2019-04-20T03:14:26.589Z,71.57
2019-04-20T03:17:08.704Z,71.79
2019-04-20T03:19:35.872Z,71.71
2019-04-20T03:22:17.471Z,72.28
2019-04-20T03:24:59.341Z,71.77
2019-04-20T03:27:16.144Z,70.74
2019-04-20T03:30:11.941Z,70.75
2019-04-20T03:35:20.052Z,70.65
2019-04-20T03:37:48.694Z,70.74
2019-04-20T03:40:12.897Z,70.21
2019-04-20T03:42:32.927Z,69.03
2019-04-20T03:45:12.268Z,65.88
2019-04-20T03:47:54.372Z,65.70
2019-04-20T03:50:35.605Z,63.67
2019-04-20T03:53:19.823Z,59.82
2019-04-20T03:55:52.873Z,60.77
2019-04-20T03:58:28.961Z,58.44
2019-04-20T04:01:22.767Z,50.56
2019-04-20T04:04:00.287Z,49.23
2019-04-20T04:06:17.775Z,47.89
2019-04-20T04:08:58.683Z,48.31
2019-04-20T04:11:31.533Z,48.42
2019-04-20T04:13:48.133Z,47.72
2019-04-20T04:16:21.959Z,47.72
2019-04-20T04:19:02.816Z,46.17
2019-04-20T04:21:41.162Z,46.17
2019-04-20T04:24:09.460Z,46.35
2019-04-20T04:26:47.427Z,45.96
2019-04-20T04:29:25.722Z,44.56
2019-04-20T04:32:09.344Z,43.99
2019-04-20T04:34:31.052Z,42.25
2019-04-20T04:37:03.456Z,43.20
2019-04-20T04:39:39.048Z,42.96
2019-04-20T04:42:19.112Z,41.77
2019-04-20T04:44:35.437Z,43.76
2019-04-20T04:47:00.258Z,43.48
2019-04-20T04:49:36.071Z,42.82
2019-04-20T04:52:07.957Z,42.49
2019-04-20T04:54:46.263Z,41.40
2019-04-20T04:57:09.508Z,40.14
2019-04-20T04:59:42.446Z,40.02
2019-04-20T05:02:15.984Z,38.64
2019-04-20T05:05:10.361Z,38.16
2019-04-20T05:07:40.039Z,38.88
2019-04-20T05:10:01.254Z,37.79
2019-04-20T05:12:35.064Z,38.24
2019-04-20T05:15:14.325Z,39.26
2019-04-20T05:18:02.109Z,38.11
2019-04-20T05:20:35.347Z,36.26
2019-04-20T05:23:04.899Z,36.81
2019-04-20T05:26:01.780Z,35.42
2019-04-20T05:28:27.501Z,34.19
2019-04-20T05:30:59.302Z,33.74
2019-04-20T05:33:42.552Z,32.67
2019-04-20T05:36:18.616Z,30.79
2019-04-20T05:38:59.110Z,29.78
2019-04-20T05:41:21.836Z,30.31
2019-04-20T05:43:54.507Z,28.88
2019-04-20T05:46:31.053Z,27.38
2019-04-20T05:49:13.428Z,27.54
2019-04-20T05:51:42.420Z,26.35
2019-04-20T05:54:17.911Z,25.79
2019-04-20T05:56:46.662Z,25.71
2019-04-20T05:59:23.832Z,23.91
2019-04-20T06:01:59.131Z,24.64
2019-04-20T06:04:39.811Z,23.71
2019-04-20T06:07:00.421Z,22.73
2019-04-20T06:09:42.239Z,24.03
2019-04-20T06:12:25.425Z,22.86
2019-04-20T06:14:55.906Z,26.99
2019-04-20T06:17:53.107Z,22.73
2019-04-20T06:20:31.231Z,20.63
2019-04-20T06:23:11.958Z,21.53
2019-04-20T06:25:50.845Z,21.69
2019-04-20T06:28:06.603Z,23.91
2019-04-20T06:30:38.661Z,27.10
2019-04-20T06:34:14.328Z,27.88
2019-04-20T06:36:32.266Z,30.93
2019-04-20T06:39:08.391Z,34.47
2019-04-20T06:41:56.780Z,36.30
2019-04-20T06:44:15.043Z,38.26
2019-04-20T06:46:57.036Z,37.71
2019-04-20T06:49:32.063Z,37.03
2019-04-20T06:52:15.393Z,36.67
2019-04-20T06:54:40.666Z,37.65
2019-04-20T06:57:19.635Z,36.08
2019-04-20T06:59:47.380Z,35.53
2019-04-20T07:02:22.292Z,36.55
2019-04-20T07:04:59.674Z,36.59
2019-04-20T07:07:24.001Z,36.45
2019-04-20T07:10:12.123Z,35.71
2019-04-20T07:12:33.325Z,35.56
2019-04-20T07:14:55.547Z,36.02
2019-04-20T07:18:02.763Z,35.62
2019-04-20T07:20:19.459Z,35.15
2019-04-20T07:23:03.590Z,35.05
2019-04-20T07:25:33.781Z,34.43
2019-04-20T07:28:09.806Z,33.68
2019-04-20T07:30:35.117Z,33.26
2019-04-20T07:33:16.100Z,34.37
2019-04-20T07:35:49.381Z,34.64
2019-04-20T07:38:31.183Z,32.78
2019-04-20T07:40:50.357Z,33.01
2019-04-20T07:43:25.556Z,32.29
2019-04-20T07:46:01.841Z,31.26
2019-04-20T07:48:30.842Z,30.65
2019-04-20T07:50:58.234Z,28.79
2019-04-20T07:53:36.262Z,28.36
2019-04-20T07:56:19.976Z,31.70
2019-04-20T07:58:40.132Z,33.01
2019-04-20T08:01:45.230Z,31.43
2019-04-20T08:04:17.419Z,27.77
2019-04-20T08:06:43.174Z,26.52
2019-04-20T08:09:21.849Z,26.82
2019-04-20T08:12:11.811Z,27.93
2019-04-20T08:14:50.607Z,27.39
2019-04-20T08:17:23.461Z,26.73
2019-04-20T08:19:45.681Z,27.27
2019-04-20T08:22:19.796Z,25.69
2019-04-20T08:24:48.258Z,26.92
2019-04-20T08:27:10.969Z,26.31
2019-04-20T08:29:59.899Z,26.49
2019-04-20T08:32:54.206Z,25.96
2019-04-20T08:35:33.142Z,26.64
2019-04-20T08:38:24.163Z,26.69
2019-04-20T08:40:40.361Z,27.51
2019-04-20T08:43:21.014Z,26.89
2019-04-20T08:45:46.601Z,27.17
2019-04-20T08:48:27.507Z,28.03
2019-04-20T08:50:51.786Z,27.70
2019-04-20T08:53:27.563Z,27.94
2019-04-20T08:55:50.113Z,26.63
2019-04-20T08:58:11.371Z,26.63
2019-04-20T09:00:49.615Z,28.52
2019-04-20T09:03:24.374Z,27.25
2019-04-20T09:05:59.105Z,26.29
2019-04-20T09:08:28.111Z,25.30
2019-04-20T09:11:15.369Z,26.26
2019-04-20T09:13:37.181Z,26.96
2019-04-20T09:16:04.231Z,26.41
2019-04-20T09:18:51.485Z,26.36
2019-04-20T09:21:24.234Z,26.75
2019-04-20T09:24:14.597Z,26.29
2019-04-20T09:26:45.673Z,25.42
2019-04-20T09:29:13.956Z,25.00
2019-04-20T09:31:47.101Z,26.41
2019-04-20T09:34:24.785Z,27.46
2019-04-20T09:37:04.527Z,26.08
2019-04-20T09:39:30.325Z,25.41
2019-04-20T09:42:01.152Z,25.36
2019-04-20T09:44:37.514Z,25.96
2019-04-20T09:47:05.565Z,25.70
2019-04-20T09:49:49.282Z,25.92
2019-04-20T09:52:22.306Z,25.11
2019-04-20T09:55:00.478Z,25.73
2019-04-20T09:57:33.958Z,25.32
2019-04-20T10:00:05.683Z,25.67
2019-04-20T10:02:27.816Z,25.30
2019-04-20T10:04:55.732Z,26.25
2019-04-20T10:07:32.563Z,26.57
2019-04-20T10:10:15.896Z,24.14
2019-04-20T10:12:37.629Z,24.77
2019-04-20T10:15:15.676Z,26.06
2019-04-20T10:17:43.568Z,24.95
2019-04-20T10:20:26.246Z,24.56
2019-04-20T10:22:48.818Z,25.23
2019-04-20T10:25:20.601Z,26.15
2019-04-20T10:27:51.960Z,25.91
2019-04-20T10:30:23.352Z,24.70
2019-04-20T10:32:55.738Z,25.63
2019-04-20T10:35:27.620Z,26.54
2019-04-20T10:38:00.778Z,24.79
2019-04-20T10:40:44.943Z,25.31
2019-04-20T10:43:06.143Z,26.10
2019-04-20T10:45:39.097Z,25.69
2019-04-20T10:48:10.906Z,28.04
2019-04-20T10:50:43.094Z,25.94
2019-04-20T10:53:15.685Z,24.64
2019-04-20T10:55:47.384Z,24.96
2019-04-20T10:58:19.708Z,25.04
2019-04-20T11:00:51.920Z,25.34
2019-04-20T11:03:24.737Z,24.75
2019-04-20T11:05:56.562Z,24.09
2019-04-20T11:08:28.678Z,23.34
2019-04-20T11:11:11.853Z,25.60
2019-04-20T11:13:33.409Z,25.33
2019-04-20T11:16:06.357Z,23.59
2019-04-20T11:18:37.900Z,24.19
2019-04-20T11:21:09.315Z,23.42
2019-04-20T11:23:40.694Z,24.28
2019-04-20T11:26:12.299Z,25.83
2019-04-20T11:28:44.190Z,24.93
2019-04-20T11:31:16.573Z,26.25
2019-04-20T11:33:48.126Z,25.39
2019-04-20T11:36:19.580Z,24.08
2019-04-20T11:38:53.025Z,24.57
2019-04-20T11:41:27.482Z,24.19
2019-04-20T11:43:58.027Z,24.41
2019-04-20T11:46:30.468Z,23.58
2019-04-20T11:49:01.943Z,23.83
2019-04-20T11:51:33.871Z,23.66
2019-04-20T11:54:06.206Z,23.38
2019-04-20T11:56:40.785Z,23.88
2019-04-20T11:59:12.377Z,24.21
2019-04-20T12:02:02.363Z,23.91
2019-04-20T12:04:41.435Z,24.98
2019-04-20T12:07:06.809Z,23.09
2019-04-20T12:09:39.601Z,25.49
2019-04-20T12:12:24.689Z,26.29
2019-04-20T12:14:44.450Z,25.93
2019-04-20T12:17:15.790Z,27.99
2019-04-20T12:19:47.998Z,26.54
2019-04-20T12:22:19.443Z,25.34
2019-04-20T12:24:51.933Z,23.69
2019-04-20T12:27:24.874Z,24.39
2019-04-20T12:29:57.546Z,24.36
2019-04-20T12:32:35.274Z,23.33
2019-04-20T12:35:02.635Z,23.50
2019-04-20T12:37:36.829Z,23.78
2019-04-20T12:40:14.260Z,24.45
2019-04-20T12:42:46.616Z,23.75
2019-04-20T12:45:20.206Z,24.37
2019-04-20T12:47:51.636Z,24.61
2019-04-20T12:50:23.524Z,25.64
2019-04-20T12:52:54.900Z,23.87
2019-04-20T12:55:26.472Z,26.15
2019-04-20T12:57:58.635Z,26.43
2019-04-20T13:00:33.251Z,24.23
2019-04-20T13:03:05.355Z,27.32
2019-04-20T13:05:38.007Z,24.72
2019-04-20T13:08:13.760Z,23.88
2019-04-20T13:10:46.853Z,23.37
2019-04-20T13:13:36.525Z,23.43
2019-04-20T13:16:12.264Z,23.92
2019-04-20T13:18:45.528Z,23.51
2019-04-20T13:21:19.044Z,22.88
2019-04-20T13:23:51.144Z,24.29
2019-04-20T13:26:22.708Z,24.28
2019-04-20T13:28:55.127Z,24.59
2019-04-20T13:31:27.610Z,24.49
2019-04-20T13:33:59.249Z,24.39
2019-04-20T13:36:30.758Z,23.87
2019-04-20T13:39:02.180Z,24.61
2019-04-20T13:41:35.790Z,23.64
2019-04-20T13:44:08.372Z,23.79
2019-04-20T13:46:40.923Z,24.39
2019-04-20T13:49:13.386Z,23.16
2019-04-20T13:51:44.749Z,23.07
2019-04-20T13:54:19.433Z,23.71
2019-04-20T13:56:51.081Z,23.21
2019-04-20T13:59:32.048Z,22.00
2019-04-20T14:02:06.446Z,22.76
2019-04-20T14:04:41.013Z,23.36
2019-04-20T14:07:15.296Z,25.33
2019-04-20T14:09:45.793Z,26.22
2019-04-20T14:12:25.261Z,26.11
2019-04-20T14:14:51.071Z,24.94
2019-04-20T14:17:23.451Z,23.32
2019-04-20T14:19:57.157Z,22.61
2019-04-20T14:22:29.291Z,23.08
2019-04-20T14:25:00.934Z,24.35
2019-04-20T14:27:32.934Z,25.24
2019-04-20T14:30:04.561Z,26.62
2019-04-20T14:32:36.813Z,26.83
2019-04-20T14:35:09.209Z,26.03
2019-04-20T14:37:41.617Z,26.56
2019-04-20T14:40:14.586Z,24.58
2019-04-20T14:42:49.960Z,22.47
2019-04-20T14:45:20.688Z,22.50
2019-04-20T14:47:52.259Z,22.39
2019-04-20T14:50:23.720Z,23.35
2019-04-20T14:52:55.650Z,24.21
2019-04-20T14:55:27.142Z,24.57
2019-04-20T14:58:01.495Z,24.06
2019-04-20T15:00:58.893Z,24.78
2019-04-20T15:03:36.709Z,25.60
2019-04-20T15:06:07.479Z,25.93
2019-04-20T15:08:38.864Z,24.49
2019-04-20T15:11:10.255Z,25.50
2019-04-20T15:13:42.608Z,24.18
2019-04-20T15:16:15.053Z,23.73
2019-04-20T15:18:55.148Z,23.74
2019-04-20T15:21:29.393Z,24.03
2019-04-20T15:24:01.732Z,23.92
2019-04-20T15:26:34.290Z,24.61
2019-04-20T15:29:06.335Z,23.59
2019-04-20T15:31:38.419Z,25.53
2019-04-20T15:34:10.857Z,24.81
2019-04-20T15:36:42.387Z,25.37
2019-04-20T15:39:14.897Z,27.16
2019-04-20T15:41:47.326Z,26.79
2019-04-20T15:44:19.482Z,28.74
2019-04-20T15:46:51.142Z,29.43
2019-04-20T15:49:22.471Z,26.89
2019-04-20T15:51:53.931Z,26.19
2019-04-20T15:54:25.574Z,25.25
2019-04-20T15:57:02.441Z,25.43
2019-04-20T15:59:30.631Z,25.03
2019-04-20T16:02:21.033Z,24.32
2019-04-20T16:05:04.024Z,24.96
2019-04-20T16:07:42.283Z,25.18
2019-04-20T16:10:09.559Z,25.08
2019-04-20T16:12:41.164Z,25.66
2019-04-20T16:15:13.592Z,25.48
2019-04-20T16:17:47.759Z,25.61
2019-04-20T16:20:23.143Z,25.63
2019-04-20T16:22:52.265Z,25.51
2019-04-20T16:25:25.587Z,25.81
2019-04-20T16:27:56.968Z,25.26
2019-04-20T16:30:29.656Z,27.07
2019-04-20T16:33:01.244Z,26.96
2019-04-20T16:35:32.641Z,26.05
2019-04-20T16:38:04.450Z,27.68
2019-04-20T16:40:35.935Z,25.74
2019-04-20T16:43:18.898Z,26.43
2019-04-20T16:45:41.241Z,26.74
2019-04-20T16:48:13.933Z,26.40
2019-04-20T16:50:46.769Z,26.19
2019-04-20T16:53:19.075Z,26.19
2019-04-20T16:55:50.665Z,26.75
2019-04-20T16:58:23.879Z,26.38
2019-04-20T17:00:55.906Z,27.09
2019-04-20T17:03:38.943Z,28.05
2019-04-20T17:06:02.222Z,30.25
2019-04-20T17:08:33.973Z,29.73
2019-04-20T17:11:05.617Z,30.23
2019-04-20T17:13:45.304Z,31.25
2019-04-20T17:16:10.301Z,31.58
2019-04-20T17:18:41.801Z,32.40
2019-04-20T17:21:16.592Z,33.81
2019-04-20T17:23:47.001Z,35.50
2019-04-20T17:26:20.943Z,36.48
2019-04-20T17:28:57.711Z,37.22
2019-04-20T17:31:35.397Z,37.53
2019-04-20T17:34:25.320Z,38.53
2019-04-20T17:36:40.503Z,39.74
2019-04-20T17:39:15.739Z,40.61
2019-04-20T17:42:03.056Z,42.02
2019-04-20T17:44:34.307Z,43.78
2019-04-20T17:47:03.450Z,44.24
2019-04-20T17:49:41.360Z,44.32
2019-04-20T17:52:24.068Z,45.79
2019-04-20T17:54:39.865Z,45.33
2019-04-20T17:57:11.461Z,45.33
2019-04-20T17:59:55.339Z,45.53
2019-04-20T18:02:43.200Z,46.06
2019-04-20T18:05:23.004Z,46.64
2019-04-20T18:07:52.461Z,47.73
2019-04-20T18:10:27.354Z,47.43
2019-04-20T18:12:48.027Z,48.30
2019-04-20T18:15:35.914Z,48.08
2019-04-20T18:18:23.679Z,48.57
2019-04-20T18:20:50.614Z,49.31
2019-04-20T18:23:28.119Z,51.73
2019-04-20T18:26:17.201Z,50.47
2019-04-20T18:28:54.428Z,51.33
2019-04-20T18:31:08.943Z,50.97
2019-04-20T18:33:42.459Z,50.78
2019-04-20T18:36:23.412Z,50.81
2019-04-20T18:38:55.226Z,51.55
2019-04-20T18:41:30.813Z,52.00
2019-04-20T18:43:57.596Z,53.03
2019-04-20T18:46:51.778Z,53.03
2019-04-20T18:49:16.522Z,52.61
2019-04-20T18:51:33.904Z,52.39
2019-04-20T18:54:11.730Z,52.03
2019-04-20T18:56:43.713Z,52.38
2019-04-20T18:59:13.184Z,52.08
2019-04-20T19:01:46.747Z,51.64
2019-04-20T19:04:19.728Z,52.47
2019-04-20T19:06:52.100Z,53.95
2019-04-20T19:09:28.082Z,52.90
2019-04-20T19:12:02.473Z,53.04
2019-04-20T19:14:37.148Z,53.80
2019-04-20T19:17:18.853Z,52.82
2019-04-20T19:19:52.881Z,52.63
2019-04-20T19:22:20.164Z,52.03
2019-04-20T19:24:51.813Z,55.43
2019-04-20T19:27:33.725Z,54.75
2019-04-20T19:30:11.787Z,54.04
2019-04-20T19:32:39.892Z,53.84
2019-04-20T19:35:14.518Z,55.05
2019-04-20T19:37:51.655Z,55.05
2019-04-20T19:40:19.158Z,53.58
2019-04-20T19:42:59.281Z,55.62
2019-04-20T19:45:43.882Z,54.88
2019-04-20T19:48:09.377Z,54.12
2019-04-20T19:50:53.569Z,54.12
2019-04-20T19:53:22.723Z,54.66
2019-04-20T19:55:43.969Z,54.66
2019-04-20T19:58:16.201Z,55.30
2019-04-20T20:00:50.517Z,55.30
2019-04-20T20:03:21.837Z,56.69
2019-04-20T20:05:54.769Z,56.69
2019-04-20T20:08:29.921Z,56.92
2019-04-20T20:11:02.803Z,55.87
2019-04-20T20:13:41.235Z,55.87
2019-04-20T20:16:13.977Z,56.47
2019-04-20T20:18:57.255Z,56.66
2019-04-20T20:21:23.698Z,56.61
2019-04-20T20:23:46.246Z,56.08
2019-04-20T20:26:23.086Z,57.97
2019-04-20T20:29:03.588Z,57.61
2019-04-20T20:31:37.766Z,56.91
2019-04-20T20:34:10.944Z,56.93
2019-04-20T20:36:38.290Z,56.93
2019-04-20T20:39:14.629Z,57.04
2019-04-20T20:41:53.343Z,54.60
2019-04-20T20:44:27.588Z,52.29
2019-04-20T20:46:59.242Z,55.25
2019-04-20T20:49:38.901Z,56.54
2019-04-20T20:52:13.317Z,56.62
2019-04-20T20:54:41.364Z,56.62
2019-04-20T20:57:08.759Z,56.66
2019-04-20T20:59:43.047Z,57.34
2019-04-20T21:02:19.315Z,57.74
2019-04-20T21:04:41.796Z,59.18
2019-04-20T21:07:13.210Z,58.75
2019-04-20T21:09:45.856Z,58.26
2019-04-20T21:12:21.300Z,59.47
2019-04-20T21:14:53.104Z,59.13
2019-04-20T21:17:32.011Z,58.39
2019-04-20T21:20:17.078Z,58.85
2019-04-20T21:22:49.358Z,60.50
2019-04-20T21:25:08.835Z,59.49
2019-04-20T21:27:40.421Z,59.31
2019-04-20T21:30:18.458Z,59.36
2019-04-20T21:32:50.334Z,59.99
2019-04-20T21:35:19.821Z,60.11
2019-04-20T21:37:59.960Z,60.25
2019-04-20T21:40:33.959Z,61.07
2019-04-20T21:43:02.364Z,61.76
2019-04-20T21:45:36.091Z,60.64
2019-04-20T21:48:09.771Z,60.42
2019-04-20T21:50:58.653Z,60.20
2019-04-20T21:53:19.705Z,61.04
2019-04-20T21:55:45.900Z,60.55
2019-04-20T21:58:25.264Z,61.34
2019-04-20T22:01:07.010Z,61.59
2019-04-20T22:03:26.743Z,61.76
2019-04-20T22:06:04.821Z,61.66
2019-04-20T22:08:39.315Z,61.21
2019-04-20T22:11:09.781Z,60.74
2019-04-20T22:13:43.907Z,60.57
2019-04-20T22:16:16.695Z,63.49
2019-04-20T22:18:54.094Z,61.70
2019-04-20T22:21:26.654Z,61.99
2019-04-20T22:24:07.943Z,63.08
2019-04-20T22:26:34.487Z,62.26
2019-04-20T22:29:00.732Z,63.44
2019-04-20T22:31:32.220Z,64.01
2019-04-20T22:34:10.404Z,63.67
2019-04-20T22:36:43.064Z,63.24
2019-04-20T22:39:13.659Z,62.98
2019-04-20T22:42:00.237Z,63.27
2019-04-20T22:44:32.056Z,62.65
2019-04-20T22:47:05.444Z,62.56
2019-04-20T22:49:48.549Z,62.99
2019-04-20T22:52:26.588Z,64.21
2019-04-20T22:55:01.211Z,64.53
2019-04-20T22:57:31.591Z,64.67
2019-04-20T22:59:56.873Z,64.33
2019-04-20T23:02:24.760Z,64.80
2019-04-20T23:04:57.082Z,64.14
2019-04-20T23:07:28.837Z,64.29
2019-04-20T23:10:03.273Z,65.37
2019-04-20T23:12:33.959Z,64.72
2019-04-20T23:15:08.174Z,64.29
2019-04-20T23:17:45.112Z,65.00
2019-04-20T23:20:22.962Z,65.45
2019-04-20T23:22:50.826Z,64.79
2019-04-20T23:25:20.935Z,65.35
2019-04-20T23:27:58.980Z,65.37
2019-04-20T23:30:31.433Z,64.97
2019-04-20T23:33:00.118Z,64.62
2019-04-20T23:35:36.819Z,66.09
2019-04-20T23:38:11.164Z,65.57
2019-04-20T23:40:39.646Z,65.94
2019-04-20T23:43:25.352Z,66.02
2019-04-20T23:46:03.300Z,67.58
2019-04-20T23:48:43.023Z,66.68
2019-04-20T23:51:36.223Z,67.12
2019-04-20T23:53:55.490Z,67.07
2019-04-20T23:56:20.870Z,67.37
2019-04-20T23:58:56.082Z,67.14
